createdAt,value
2023-03-17T00:01:05.750Z,100208.69
2023-03-17T00:04:12.505Z,100199.47
2023-03-17T00:07:17.310Z,100204.41
2023-03-17T00:10:25.444Z,100204.47
2023-03-17T00:13:28.991Z,100207.63
2023-03-17T00:16:35.042Z,100203.34
2023-03-17T00:19:37.160Z,100195.75
2023-03-17T00:22:40.000Z,100197.66
2023-03-17T00:25:43.398Z,100189.03
2023-03-17T00:28:45.793Z,100188.91
2023-03-17T00:31:50.803Z,100196.94
2023-03-17T00:34:52.854Z,100186.53
2023-03-17T00:37:57.812Z,100193.28
2023-03-17T00:41:00.237Z,100189.03
2023-03-17T00:44:02.303Z,100190.09
2023-03-17T00:47:04.452Z,100183.13
2023-03-17T00:50:10.509Z,100177.00
2023-03-17T00:53:16.884Z,100176.34
2023-03-17T00:56:21.673Z,100174.63
2023-03-17T00:59:33.783Z,100172.00
2023-03-17T01:02:36.448Z,100170.91
2023-03-17T01:05:40.139Z,100168.75
2023-03-17T01:08:44.957Z,100162.88
2023-03-17T01:11:48.351Z,100168.91
2023-03-17T01:14:57.296Z,100174.00
2023-03-17T01:18:01.007Z,100167.25
2023-03-17T01:21:03.896Z,100167.13
2023-03-17T01:24:06.542Z,100164.44
2023-03-17T01:27:08.831Z,100167.84
2023-03-17T01:30:29.488Z,100168.56
2023-03-17T01:33:32.402Z,100173.84
2023-03-17T01:36:35.782Z,100179.66
2023-03-17T01:39:37.899Z,100181.47
2023-03-17T01:42:40.322Z,100187.78
2023-03-17T01:46:16.180Z,100179.19
2023-03-17T01:49:35.055Z,100171.50
2023-03-17T01:52:39.776Z,100179.97
2023-03-17T01:55:45.673Z,100179.03
2023-03-17T01:58:52.667Z,100184.94
2023-03-17T02:02:02.393Z,100176.28
2023-03-17T02:05:06.981Z,100184.75
2023-03-17T02:08:12.445Z,100174.81
2023-03-17T02:11:15.371Z,100187.50
2023-03-17T02:14:17.953Z,100194.31
2023-03-17T02:17:22.180Z,100197.75
2023-03-17T02:20:24.400Z,100199.47
2023-03-17T02:23:26.555Z,100210.38
2023-03-17T02:26:33.195Z,100201.22
2023-03-17T02:29:37.912Z,100224.03
2023-03-17T02:32:40.514Z,100224.91
2023-03-17T02:35:42.643Z,100225.41
2023-03-17T02:38:45.092Z,100226.13
2023-03-17T02:41:47.598Z,100233.84
2023-03-17T02:44:50.689Z,100231.50
2023-03-17T02:47:56.060Z,100222.88
2023-03-17T02:50:58.190Z,100205.78
2023-03-17T02:54:00.449Z,100205.13
2023-03-17T02:57:02.611Z,100226.28
2023-03-17T03:00:05.022Z,100220.38
2023-03-17T03:03:07.143Z,100207.75
2023-03-17T03:06:09.376Z,100226.25
2023-03-17T03:09:11.965Z,100213.50
2023-03-17T03:12:14.262Z,100222.22
2023-03-17T03:15:16.438Z,100216.38
2023-03-17T03:18:18.708Z,100213.09
2023-03-17T03:21:20.815Z,100213.84
2023-03-17T03:24:23.043Z,100212.25
2023-03-17T03:27:25.092Z,100213.78
2023-03-17T03:30:27.234Z,100218.84
2023-03-17T03:33:29.395Z,100212.91
2023-03-17T03:36:32.419Z,100207.84
2023-03-17T03:39:34.756Z,100205.28
2023-03-17T03:42:36.831Z,100207.75
2023-03-17T03:45:38.964Z,100215.47
2023-03-17T03:48:41.081Z,100213.19
2023-03-17T03:51:43.226Z,100206.28
2023-03-17T03:54:45.500Z,100207.13
2023-03-17T03:57:47.585Z,100207.16
2023-03-17T04:00:49.982Z,100210.78
2023-03-17T04:03:52.610Z,100209.66
2023-03-17T04:06:54.666Z,100199.75
2023-03-17T04:09:57.042Z,100213.34
2023-03-17T04:12:59.072Z,100216.69
2023-03-17T04:16:02.258Z,100216.16
2023-03-17T04:19:04.656Z,100211.22
2023-03-17T04:22:08.867Z,100219.84
2023-03-17T04:25:14.559Z,100226.63
2023-03-17T04:28:16.985Z,100215.50
2023-03-17T04:31:19.151Z,100221.53
2023-03-17T04:34:21.232Z,100232.44
2023-03-17T04:37:24.252Z,100231.47
2023-03-17T04:40:26.693Z,100243.38
2023-03-17T04:43:28.790Z,100233.06
2023-03-17T04:46:31.395Z,100239.09
2023-03-17T04:49:33.909Z,100238.28
2023-03-17T04:52:36.990Z,100231.09
2023-03-17T04:55:39.140Z,100242.38
2023-03-17T04:58:41.377Z,100243.00
2023-03-17T05:01:44.034Z,100250.38
2023-03-17T05:04:46.548Z,100255.22
2023-03-17T05:07:48.601Z,100256.09
2023-03-17T05:10:51.488Z,100252.59
2023-03-17T05:13:53.687Z,100252.56
2023-03-17T05:16:55.890Z,100256.69
2023-03-17T05:19:57.993Z,100263.38
2023-03-17T05:23:00.133Z,100267.78
2023-03-17T05:26:02.729Z,100263.66
2023-03-17T05:29:05.191Z,100263.72
2023-03-17T05:32:07.697Z,100270.38
2023-03-17T05:35:10.292Z,100276.16
2023-03-17T05:38:13.423Z,100276.03
2023-03-17T05:41:15.923Z,100276.53
2023-03-17T05:44:18.028Z,100279.81
2023-03-17T05:47:20.136Z,100275.09
2023-03-17T05:50:22.980Z,100280.72
2023-03-17T05:53:25.293Z,100281.19
2023-03-17T05:56:33.373Z,100274.28
2023-03-17T05:59:36.271Z,100283.97
2023-03-17T06:02:39.573Z,100286.19
2023-03-17T06:05:42.068Z,100282.16
2023-03-17T06:08:44.333Z,100290.81
2023-03-17T06:11:46.505Z,100292.09
2023-03-17T06:14:48.733Z,100293.47
2023-03-17T06:17:51.846Z,100290.38
2023-03-17T06:20:54.301Z,100286.47
2023-03-17T06:23:56.441Z,100296.44
2023-03-17T06:26:58.581Z,100305.44
2023-03-17T06:30:00.566Z,100302.75
2023-03-17T06:33:03.328Z,100302.34
2023-03-17T06:36:06.577Z,100311.84
2023-03-17T06:39:09.626Z,100302.03
2023-03-17T06:42:12.084Z,100293.03
2023-03-17T06:45:14.348Z,100290.28
2023-03-17T06:48:16.477Z,100292.09
2023-03-17T06:51:18.555Z,100297.72
2023-03-17T06:54:23.947Z,100290.06
2023-03-17T06:57:26.317Z,100300.22
2023-03-17T07:00:30.406Z,100310.38
2023-03-17T07:03:33.001Z,100304.47
2023-03-17T07:06:35.396Z,100312.88
2023-03-17T07:09:37.759Z,100294.09
2023-03-17T07:12:39.862Z,100306.97
2023-03-17T07:15:43.026Z,100325.63
2023-03-17T07:18:46.576Z,100324.75
2023-03-17T07:21:49.189Z,100323.91
2023-03-17T07:24:52.106Z,100324.34
2023-03-17T07:27:54.297Z,100323.00
2023-03-17T07:30:57.999Z,100308.63
2023-03-17T07:34:00.467Z,100314.31
2023-03-17T07:37:03.448Z,100320.28
2023-03-17T07:40:06.645Z,100316.91
2023-03-17T07:43:08.848Z,100326.22
2023-03-17T07:46:11.159Z,100326.28
2023-03-17T07:49:14.067Z,100338.84
2023-03-17T07:52:16.313Z,100334.09
2023-03-17T07:55:18.656Z,100340.31
2023-03-17T07:58:21.855Z,100332.34
2023-03-17T08:01:25.645Z,100326.28
2023-03-17T08:04:30.361Z,100325.22
2023-03-17T08:07:32.435Z,100325.66
2023-03-17T08:10:35.181Z,100324.00
2023-03-17T08:13:37.865Z,100326.88
2023-03-17T08:16:40.080Z,100318.16
2023-03-17T08:19:42.532Z,100333.50
2023-03-17T08:22:45.039Z,100340.09
2023-03-17T08:25:47.895Z,100335.41
2023-03-17T08:28:50.397Z,100342.59
2023-03-17T08:31:52.571Z,100340.72
2023-03-17T08:34:54.908Z,100339.25
2023-03-17T08:37:57.088Z,100335.78
2023-03-17T08:41:08.127Z,100333.50
2023-03-17T08:44:10.563Z,100327.56
2023-03-17T08:47:12.763Z,100325.59
2023-03-17T08:50:18.779Z,100326.88
2023-03-17T08:53:20.840Z,100325.31
2023-03-17T08:56:23.095Z,100326.53
2023-03-17T08:59:25.230Z,100328.34
2023-03-17T09:02:28.490Z,100333.66
2023-03-17T09:05:31.984Z,100322.97
2023-03-17T09:08:35.733Z,100323.53
2023-03-17T09:11:37.832Z,100328.50
2023-03-17T09:14:44.138Z,100337.06
2023-03-17T09:17:46.891Z,100331.22
2023-03-17T09:20:49.049Z,100335.84
2023-03-17T09:23:51.537Z,100330.09
2023-03-17T09:26:53.771Z,100335.56
2023-03-17T09:29:56.386Z,100341.41
2023-03-17T09:32:59.178Z,100334.63
2023-03-17T09:36:41.130Z,100324.13
2023-03-17T09:40:43.390Z,100329.91
2023-03-17T09:44:05.309Z,100320.34
2023-03-17T09:47:07.359Z,100318.78
2023-03-17T09:50:33.466Z,100315.47
2023-03-17T09:53:41.540Z,100313.56
2023-03-17T09:56:49.046Z,100312.28
2023-03-17T10:00:01.674Z,100298.59
2023-03-17T10:03:10.729Z,100308.63
2023-03-17T10:06:23.735Z,100306.69
2023-03-17T10:09:43.586Z,100306.22
2023-03-17T10:12:49.054Z,100303.72
2023-03-17T10:15:56.778Z,100300.41
2023-03-17T10:19:07.211Z,100301.84
2023-03-17T10:22:38.218Z,100299.94
2023-03-17T10:25:40.784Z,100289.16
2023-03-17T10:28:43.049Z,100287.56
2023-03-17T10:31:45.203Z,100282.31
2023-03-17T10:34:48.729Z,100282.13
2023-03-17T10:37:53.400Z,100281.38
2023-03-17T10:41:07.402Z,100274.84
2023-03-17T10:44:35.844Z,100268.34
2023-03-17T10:47:39.910Z,100272.28
2023-03-17T10:50:42.281Z,100264.63
2023-03-17T10:53:44.617Z,100267.44
2023-03-17T10:56:54.328Z,100253.44
2023-03-17T10:59:57.436Z,100256.56
2023-03-17T11:03:03.546Z,100253.97
2023-03-17T11:06:11.809Z,100255.41
2023-03-17T11:09:18.540Z,100250.81
2023-03-17T11:12:41.015Z,100240.25
2023-03-17T11:16:10.727Z,100249.47
2023-03-17T11:19:16.238Z,100231.41
2023-03-17T11:22:30.593Z,100228.81
2023-03-17T11:25:41.013Z,100222.91
2023-03-17T11:28:50.747Z,100213.16
2023-03-17T11:32:05.466Z,100210.53
2023-03-17T11:35:44.223Z,100203.53
2023-03-17T11:38:55.640Z,100195.91
2023-03-17T11:42:39.324Z,100189.84
2023-03-17T11:45:54.512Z,100179.56
2023-03-17T11:49:11.768Z,100184.66
2023-03-17T11:52:58.342Z,100173.81
2023-03-17T11:56:40.822Z,100174.97
2023-03-17T11:59:53.150Z,100172.47
2023-03-17T12:03:13.213Z,100165.25
2023-03-17T12:06:21.379Z,100158.91
2023-03-17T12:09:23.639Z,100156.78
2023-03-17T12:12:36.782Z,100158.66
2023-03-17T12:15:48.538Z,100161.56
2023-03-17T12:19:05.245Z,100153.81
2023-03-17T12:22:19.695Z,100142.00
2023-03-17T12:25:49.929Z,100136.63
2023-03-17T12:29:15.404Z,100135.19
2023-03-17T12:32:33.704Z,100123.44
2023-03-17T12:35:39.054Z,100128.09
2023-03-17T12:38:47.019Z,100125.22
2023-03-17T12:42:24.077Z,100132.22
2023-03-17T12:45:55.211Z,100131.88
2023-03-17T12:49:12.652Z,100131.53
2023-03-17T12:52:26.714Z,100129.53
2023-03-17T12:55:33.192Z,100122.69
2023-03-17T12:58:44.087Z,100120.94
2023-03-17T13:01:57.511Z,100116.41
2023-03-17T13:05:01.917Z,100112.63
2023-03-17T13:08:10.979Z,100106.22
2023-03-17T13:11:47.358Z,100092.81
2023-03-17T13:14:52.088Z,100094.75
2023-03-17T13:18:13.694Z,100093.72
2023-03-17T13:21:18.891Z,100081.88
2023-03-17T13:24:23.728Z,100082.72
2023-03-17T13:27:32.495Z,100074.84
2023-03-17T13:30:34.569Z,100076.28
2023-03-17T13:33:45.182Z,100067.00
2023-03-17T13:37:18.850Z,100056.69
2023-03-17T13:40:39.099Z,100058.44
2023-03-17T13:44:19.008Z,100062.19
2023-03-17T13:47:44.069Z,100068.47
2023-03-17T13:50:47.046Z,100057.03
2023-03-17T13:53:54.314Z,100056.09
2023-03-17T13:57:00.136Z,100044.84
2023-03-17T14:00:21.151Z,100054.75
2023-03-17T14:03:32.652Z,100058.72
2023-03-17T14:06:38.187Z,100034.16
2023-03-17T14:09:42.630Z,100050.34
2023-03-17T14:12:52.396Z,100044.50
2023-03-17T14:16:03.814Z,100038.63
2023-03-17T14:19:20.742Z,100039.56
2023-03-17T14:22:24.671Z,100029.91
2023-03-17T14:25:33.372Z,100020.72
2023-03-17T14:28:36.571Z,100026.72
2023-03-17T14:31:38.753Z,100015.22
2023-03-17T14:35:13.477Z,100021.88
2023-03-17T14:42:31.630Z,100012.63
2023-03-17T14:45:46.311Z,100023.59
2023-03-17T14:48:51.455Z,100023.47
2023-03-17T14:52:00.356Z,100014.47
2023-03-17T14:55:02.629Z,100010.28
2023-03-17T14:58:22.302Z,100013.78
2023-03-17T15:01:38.843Z,100008.16
2023-03-17T15:04:52.325Z,100001.81
2023-03-17T15:07:54.784Z,99996.88
2023-03-17T15:11:02.106Z,99996.25
2023-03-17T15:14:34.649Z,99997.84
2023-03-17T15:17:37.453Z,100000.84
2023-03-17T15:20:43.161Z,99988.91
2023-03-17T15:23:46.922Z,99998.16
2023-03-17T15:26:49.426Z,99992.47
2023-03-17T15:29:51.537Z,99990.03
2023-03-17T15:33:01.360Z,99995.66
2023-03-17T15:36:04.893Z,99988.13
2023-03-17T15:39:07.202Z,99974.38
2023-03-17T15:42:09.545Z,99993.88
2023-03-17T15:45:17.791Z,99998.44
2023-03-17T15:48:32.346Z,99990.56
2023-03-17T15:51:34.810Z,99985.84
2023-03-17T15:54:37.564Z,99984.22
2023-03-17T15:57:39.613Z,99988.59
2023-03-17T16:00:42.298Z,99998.59
2023-03-17T16:03:47.189Z,99998.72
2023-03-17T16:06:49.420Z,99992.47
2023-03-17T16:09:52.082Z,99993.00
2023-03-17T16:12:54.985Z,100001.81
2023-03-17T16:16:01.305Z,100003.31
2023-03-17T16:19:05.943Z,99995.25
2023-03-17T16:22:23.839Z,99992.34
2023-03-17T16:25:28.427Z,99994.53
2023-03-17T16:28:32.401Z,99992.09
2023-03-17T16:31:34.669Z,99989.84
2023-03-17T16:34:36.944Z,100000.31
2023-03-17T16:37:39.057Z,99990.44
2023-03-17T16:40:42.072Z,99989.13
2023-03-17T16:43:45.980Z,99993.97
2023-03-17T16:46:48.528Z,100002.81
2023-03-17T16:49:50.843Z,99996.25
2023-03-17T16:52:53.398Z,99996.56
2023-03-17T16:55:55.742Z,99988.97
2023-03-17T16:58:57.957Z,99994.22
2023-03-17T17:02:02.110Z,99993.63
2023-03-17T17:05:13.070Z,99989.56
2023-03-17T17:08:15.136Z,99992.19
2023-03-17T17:11:19.555Z,99991.56
2023-03-17T17:14:21.600Z,99989.09
2023-03-17T17:17:23.727Z,99996.31
2023-03-17T17:20:31.070Z,99988.00
2023-03-17T17:23:33.783Z,99987.47
2023-03-17T17:26:36.094Z,99993.44
2023-03-17T17:29:38.572Z,99995.56
2023-03-17T17:32:41.193Z,99992.28
2023-03-17T17:35:44.634Z,99989.88
2023-03-17T17:38:47.280Z,99992.72
2023-03-17T17:41:49.619Z,99994.72
2023-03-17T17:44:51.960Z,99994.94
2023-03-17T17:47:54.306Z,100000.75
2023-03-17T17:50:57.563Z,99992.41
2023-03-17T17:53:59.748Z,99996.22
2023-03-17T17:57:02.635Z,99999.16
2023-03-17T18:00:06.858Z,100003.22
2023-03-17T18:03:11.140Z,100004.06
2023-03-17T18:06:14.189Z,99999.03
2023-03-17T18:09:18.245Z,99999.38
2023-03-17T18:12:22.470Z,99998.59
2023-03-17T18:15:26.534Z,99998.16
2023-03-17T18:18:29.451Z,99996.78
2023-03-17T18:21:34.851Z,99992.06
2023-03-17T18:24:37.655Z,99999.38
2023-03-17T18:27:40.590Z,99991.28
2023-03-17T18:30:44.683Z,99997.28
2023-03-17T18:33:49.237Z,99998.44
2023-03-17T18:36:53.194Z,99996.94
2023-03-17T18:40:12.578Z,99998.00
2023-03-17T18:43:17.071Z,99997.59
2023-03-17T18:46:19.466Z,99994.53
2023-03-17T18:49:25.255Z,99984.50
2023-03-17T18:52:38.527Z,99984.63
2023-03-17T18:55:41.806Z,99983.22
2023-03-17T18:58:44.306Z,99980.09
2023-03-17T19:01:47.504Z,99980.22
2023-03-17T19:04:50.383Z,99984.53
2023-03-17T19:07:52.808Z,99974.81
2023-03-17T19:10:55.100Z,99968.13
2023-03-17T19:13:58.382Z,99979.06
2023-03-17T19:17:01.146Z,99983.44
2023-03-17T19:20:04.217Z,99972.78
2023-03-17T19:23:07.091Z,99978.19
2023-03-17T19:26:10.483Z,99974.91
2023-03-17T19:29:12.963Z,99982.00
2023-03-17T19:32:16.659Z,99976.38
2023-03-17T19:35:19.253Z,99972.19
2023-03-17T19:38:22.066Z,99962.16
2023-03-17T19:41:24.380Z,99967.81
2023-03-17T19:44:27.581Z,99961.75
2023-03-17T19:47:29.968Z,99965.38
2023-03-17T19:50:33.057Z,99955.31
2023-03-17T19:53:37.532Z,99961.25
2023-03-17T19:56:40.621Z,99956.03
2023-03-17T19:59:44.214Z,99952.63
2023-03-17T20:02:47.202Z,99952.09
2023-03-17T20:05:52.708Z,99945.34
2023-03-17T20:08:55.035Z,99956.16
2023-03-17T20:11:57.563Z,99960.75
2023-03-17T20:15:01.630Z,99960.72
2023-03-17T20:18:04.644Z,99945.88
2023-03-17T20:21:12.798Z,99959.47
2023-03-17T20:24:15.210Z,99953.69
2023-03-17T20:27:17.661Z,99947.91
2023-03-17T20:30:20.228Z,99951.25
2023-03-17T20:33:22.255Z,99952.00
2023-03-17T20:36:24.680Z,99952.69
2023-03-17T20:39:27.358Z,99952.75
2023-03-17T20:42:29.980Z,99957.84
2023-03-17T20:45:32.392Z,99958.78
2023-03-17T20:48:35.943Z,99954.69
2023-03-17T20:51:39.452Z,99959.75
2023-03-17T20:54:42.210Z,99960.47
2023-03-17T20:57:48.780Z,99961.19
2023-03-17T21:00:53.462Z,99958.09
2023-03-17T21:03:55.854Z,99953.41
2023-03-17T21:06:58.230Z,99952.53
2023-03-17T21:10:02.178Z,99959.16
2023-03-17T21:13:04.609Z,99957.41
2023-03-17T21:16:07.607Z,99953.31
2023-03-17T21:19:13.871Z,99944.97
2023-03-17T21:22:17.755Z,99954.47
2023-03-17T21:25:20.250Z,99949.31
2023-03-17T21:28:23.319Z,99953.47
2023-03-17T21:31:25.587Z,99966.97
2023-03-17T21:34:30.115Z,99965.19
2023-03-17T21:37:32.234Z,99965.31
2023-03-17T21:40:34.466Z,99963.59
2023-03-17T21:43:37.110Z,99962.72
2023-03-17T21:46:39.657Z,99961.66
2023-03-17T21:49:41.797Z,99959.25
2023-03-17T21:52:44.805Z,99968.84
2023-03-17T21:55:47.188Z,99965.81
2023-03-17T21:58:49.884Z,99965.72
2023-03-17T22:01:55.736Z,99964.81
2023-03-17T22:04:57.895Z,99963.16
2023-03-17T22:08:00.055Z,99952.06
2023-03-17T22:11:10.223Z,99963.09
2023-03-17T22:14:13.432Z,99960.47
2023-03-17T22:17:15.787Z,99957.75
2023-03-17T22:20:17.940Z,99951.66
2023-03-17T22:23:20.977Z,99942.19
2023-03-17T22:26:23.141Z,99950.88
2023-03-17T22:29:26.708Z,99948.31
2023-03-17T22:32:28.897Z,99949.81
2023-03-17T22:35:31.353Z,99943.44
2023-03-17T22:38:34.415Z,99939.66
2023-03-17T22:41:37.895Z,99938.81
2023-03-17T22:44:40.504Z,99938.19
2023-03-17T22:47:42.705Z,99938.16
2023-03-17T22:50:44.843Z,99936.19
2023-03-17T22:53:48.068Z,99929.47
2023-03-17T22:56:50.339Z,99922.06
2023-03-17T22:59:52.467Z,99928.91
2023-03-17T23:02:54.644Z,99933.06
2023-03-17T23:05:59.789Z,99931.41
2023-03-17T23:09:02.041Z,99933.16
2023-03-17T23:12:04.321Z,99929.78
2023-03-17T23:15:07.550Z,99942.53
2023-03-17T23:18:10.441Z,99930.66
2023-03-17T23:21:21.377Z,99937.25
2023-03-17T23:24:23.540Z,99939.75
2023-03-17T23:27:25.694Z,99940.06
2023-03-17T23:30:27.811Z,99934.19
2023-03-17T23:33:31.104Z,99924.00
2023-03-17T23:36:34.276Z,99926.81
2023-03-17T23:39:36.475Z,99927.53
2023-03-17T23:42:38.562Z,99928.31
2023-03-17T23:45:41.888Z,99924.13
2023-03-17T23:48:45.381Z,99918.59
2023-03-17T23:51:48.739Z,99921.72
2023-03-17T23:54:51.250Z,99926.63
2023-03-17T23:57:53.287Z,99918.34
